sensor_id;sensor_type;location;lat;lon;timestamp;pressure;altitude;pressure_sealevel;temperature;humidity
71643;BME280;59438;45.014;39.006;2023-01-19T00:00:19;101887.78;;;6.80;54.42
71643;BME280;59438;45.014;39.006;2023-01-19T00:02:45;101899.97;;;6.82;53.75
71643;BME280;59438;45.014;39.006;2023-01-19T00:05:12;101890.38;;;6.83;54.58
71643;BME280;59438;45.014;39.006;2023-01-19T00:07:39;101902.56;;;6.84;54.02
71643;BME280;59438;45.014;39.006;2023-01-19T00:10:06;101898.22;;;6.83;54.31
71643;BME280;59438;45.014;39.006;2023-01-19T00:12:33;101895.59;;;6.83;53.84
71643;BME280;59438;45.014;39.006;2023-01-19T00:14:59;101894.75;;;6.84;54.52
71643;BME280;59438;45.014;39.006;2023-01-19T00:17:27;101895.59;;;6.81;54.29
71643;BME280;59438;45.014;39.006;2023-01-19T00:19:54;101910.41;;;6.81;53.71
71643;BME280;59438;45.014;39.006;2023-01-19T00:22:20;101906.94;;;6.79;54.43
71643;BME280;59438;45.014;39.006;2023-01-19T00:24:46;101908.66;;;6.75;53.79
71643;BME280;59438;45.014;39.006;2023-01-19T00:27:13;101908.69;;;6.74;54.21
71643;BME280;59438;45.014;39.006;2023-01-19T00:29:39;101896.50;;;6.68;54.50
71643;BME280;59438;45.014;39.006;2023-01-19T00:32:05;101899.13;;;6.68;54.36
71643;BME280;59438;45.014;39.006;2023-01-19T00:34:33;101897.41;;;6.65;54.69
71643;BME280;59438;45.014;39.006;2023-01-19T00:37:00;101892.19;;;6.59;54.21
71643;BME280;59438;45.014;39.006;2023-01-19T00:39:26;101890.44;;;6.61;54.63
71643;BME280;59438;45.014;39.006;2023-01-19T00:41:52;101887.81;;;6.57;54.79
71643;BME280;59438;45.014;39.006;2023-01-19T00:44:18;101885.19;;;6.57;54.25
71643;BME280;59438;45.014;39.006;2023-01-19T00:46:45;101886.09;;;6.57;54.44
71643;BME280;59438;45.014;39.006;2023-01-19T00:49:11;101887.84;;;6.55;54.17
71643;BME280;59438;45.014;39.006;2023-01-19T00:51:39;101886.09;;;6.54;54.60
71643;BME280;59438;45.014;39.006;2023-01-19T00:54:05;101884.38;;;6.53;54.30
71643;BME280;59438;45.014;39.006;2023-01-19T00:56:32;101883.50;;;6.50;55.12
71643;BME280;59438;45.014;39.006;2023-01-19T00:58:59;101886.97;;;6.50;54.98
71643;BME280;59438;45.014;39.006;2023-01-19T01:01:25;101890.44;;;6.46;54.29
71643;BME280;59438;45.014;39.006;2023-01-19T01:03:51;101882.63;;;6.48;54.63
71643;BME280;59438;45.014;39.006;2023-01-19T01:06:18;101886.97;;;6.50;54.42
71643;BME280;59438;45.014;39.006;2023-01-19T01:08:46;101887.81;;;6.52;54.92
71643;BME280;59438;45.014;39.006;2023-01-19T01:11:12;101885.22;;;6.52;55.09
71643;BME280;59438;45.014;39.006;2023-01-19T01:13:39;101878.28;;;6.51;54.64
71643;BME280;59438;45.014;39.006;2023-01-19T01:16:06;101877.41;;;6.49;55.16
71643;BME280;59438;45.014;39.006;2023-01-19T01:18:32;101880.03;;;6.51;54.34
71643;BME280;59438;45.014;39.006;2023-01-19T01:21:02;101878.28;;;6.51;54.34
71643;BME280;59438;45.014;39.006;2023-01-19T01:23:29;101880.88;;;6.51;54.18
71643;BME280;59438;45.014;39.006;2023-01-19T01:25:57;101883.50;;;6.51;54.59
71643;BME280;59438;45.014;39.006;2023-01-19T01:28:23;101881.75;;;6.50;55.01
71643;BME280;59438;45.014;39.006;2023-01-19T01:30:52;101879.13;;;6.50;54.55
71643;BME280;59438;45.014;39.006;2023-01-19T01:33:18;101880.00;;;6.52;54.19
71643;BME280;59438;45.014;39.006;2023-01-19T01:35:45;101881.75;;;6.53;55.22
71643;BME280;59438;45.014;39.006;2023-01-19T01:38:12;101873.91;;;6.53;54.31
71643;BME280;59438;45.014;39.006;2023-01-19T01:40:39;101874.81;;;6.51;54.47
71643;BME280;59438;45.014;39.006;2023-01-19T01:43:09;101880.00;;;6.54;54.58
71643;BME280;59438;45.014;39.006;2023-01-19T01:45:38;101840.00;;;6.27;54.38
71643;BME280;59438;45.014;39.006;2023-01-19T01:48:08;101889.59;;;6.53;54.44
71643;BME280;59438;45.014;39.006;2023-01-19T01:50:38;101869.56;;;6.46;54.56
71643;BME280;59438;45.014;39.006;2023-01-19T01:53:09;101837.41;;;6.25;54.75
71643;BME280;59438;45.014;39.006;2023-01-19T01:55:45;101882.59;;;6.52;54.46
71643;BME280;59438;45.014;39.006;2023-01-19T01:58:14;101886.09;;;6.54;55.35
71643;BME280;59438;45.014;39.006;2023-01-19T02:00:41;101882.63;;;6.55;55.04
71643;BME280;59438;45.014;39.006;2023-01-19T02:03:08;101880.88;;;6.57;55.02
71643;BME280;59438;45.014;39.006;2023-01-19T02:05:35;101886.06;;;6.60;54.37
71643;BME280;59438;45.014;39.006;2023-01-19T02:08:05;101864.31;;;6.57;55.18
71643;BME280;59438;45.014;39.006;2023-01-19T02:10:32;101874.75;;;6.63;55.17
71643;BME280;59438;45.014;39.006;2023-01-19T02:12:59;101866.91;;;6.63;54.73
71643;BME280;59438;45.014;39.006;2023-01-19T02:15:27;101872.13;;;6.64;54.79
71643;BME280;59438;45.014;39.006;2023-01-19T02:17:53;101870.38;;;6.65;55.06
71643;BME280;59438;45.014;39.006;2023-01-19T02:20:21;101865.16;;;6.65;55.24
71643;BME280;59438;45.014;39.006;2023-01-19T02:22:50;101872.13;;;6.64;55.12
71643;BME280;59438;45.014;39.006;2023-01-19T02:25:19;101866.06;;;6.64;55.04
71643;BME280;59438;45.014;39.006;2023-01-19T02:27:46;101873.00;;;6.65;55.70
71643;BME280;59438;45.014;39.006;2023-01-19T02:30:13;101880.84;;;6.66;55.31
71643;BME280;59438;45.014;39.006;2023-01-19T02:32:39;101891.28;;;6.66;54.88
71643;BME280;59438;45.014;39.006;2023-01-19T02:35:06;101900.84;;;6.71;55.17
71643;BME280;59438;45.014;39.006;2023-01-19T02:37:35;101902.56;;;6.73;55.04
71643;BME280;59438;45.014;39.006;2023-01-19T02:40:03;101906.06;;;6.75;54.87
71643;BME280;59438;45.014;39.006;2023-01-19T02:42:34;101890.41;;;6.63;55.46
71643;BME280;59438;45.014;39.006;2023-01-19T02:45:04;101915.63;;;6.79;54.73
71643;BME280;59438;45.014;39.006;2023-01-19T02:47:36;101915.66;;;6.78;55.20
71643;BME280;59438;45.014;39.006;2023-01-19T02:50:03;101906.94;;;6.80;55.11
71643;BME280;59438;45.014;39.006;2023-01-19T02:52:30;101909.53;;;6.80;54.83
71643;BME280;59438;45.014;39.006;2023-01-19T02:55:03;101901.72;;;6.80;55.18
71643;BME280;59438;45.014;39.006;2023-01-19T02:57:54;101911.28;;;6.83;54.73
71643;BME280;59438;45.014;39.006;2023-01-19T03:00:32;101906.03;;;6.81;54.96
71643;BME280;59438;45.014;39.006;2023-01-19T03:03:13;101906.94;;;6.80;54.61
71643;BME280;59438;45.014;39.006;2023-01-19T03:05:51;101895.63;;;6.80;54.70
71643;BME280;59438;45.014;39.006;2023-01-19T03:08:29;101903.44;;;6.78;54.53
71643;BME280;59438;45.014;39.006;2023-01-19T03:11:00;101857.41;;;6.45;54.90
71643;BME280;59438;45.014;39.006;2023-01-19T03:13:34;101909.56;;;6.73;55.28
71643;BME280;59438;45.014;39.006;2023-01-19T03:16:10;101913.94;;;6.68;55.03
71643;BME280;59438;45.014;39.006;2023-01-19T03:18:39;101914.78;;;6.65;54.96
71643;BME280;59438;45.014;39.006;2023-01-19T03:21:09;101910.44;;;6.65;55.21
71643;BME280;59438;45.014;39.006;2023-01-19T03:23:40;101912.19;;;6.63;54.73
71643;BME280;59438;45.014;39.006;2023-01-19T03:26:13;101912.19;;;6.63;55.69
71643;BME280;59438;45.014;39.006;2023-01-19T03:28:43;101889.59;;;6.47;55.17
71643;BME280;59438;45.014;39.006;2023-01-19T03:31:14;101882.63;;;6.43;55.61
71643;BME280;59438;45.014;39.006;2023-01-19T03:33:45;101912.19;;;6.59;55.45
71643;BME280;59438;45.014;39.006;2023-01-19T03:36:17;101913.91;;;6.57;54.68
71643;BME280;59438;45.014;39.006;2023-01-19T03:38:45;101914.81;;;6.56;55.36
71643;BME280;59438;45.014;39.006;2023-01-19T03:41:16;101875.66;;;6.31;54.87
71643;BME280;59438;45.014;39.006;2023-01-19T03:43:46;101918.28;;;6.56;55.43
71643;BME280;59438;45.014;39.006;2023-01-19T03:46:14;101920.91;;;6.55;55.90
71643;BME280;59438;45.014;39.006;2023-01-19T03:48:41;101932.22;;;6.54;55.40
71643;BME280;59438;45.014;39.006;2023-01-19T03:51:08;101931.34;;;6.50;54.97
71643;BME280;59438;45.014;39.006;2023-01-19T03:53:36;101934.81;;;6.48;56.00
71643;BME280;59438;45.014;39.006;2023-01-19T03:56:02;101940.03;;;6.48;55.21
71643;BME280;59438;45.014;39.006;2023-01-19T03:58:29;101950.50;;;6.44;55.14
71643;BME280;59438;45.014;39.006;2023-01-19T04:00:57;101947.88;;;6.40;55.92
71643;BME280;59438;45.014;39.006;2023-01-19T04:03:23;101952.22;;;6.38;56.14
71643;BME280;59438;45.014;39.006;2023-01-19T04:05:49;101951.38;;;6.34;56.10
71643;BME280;59438;45.014;39.006;2023-01-19T04:08:16;101948.75;;;6.34;55.90
71643;BME280;59438;45.014;39.006;2023-01-19T04:10:42;101950.50;;;6.32;56.22
71643;BME280;59438;45.014;39.006;2023-01-19T04:13:08;101951.34;;;6.30;55.80
71643;BME280;59438;45.014;39.006;2023-01-19T04:15:35;101950.47;;;6.28;55.42
71643;BME280;59438;45.014;39.006;2023-01-19T04:18:02;101955.69;;;6.24;55.43
71643;BME280;59438;45.014;39.006;2023-01-19T04:20:29;101954.84;;;6.22;55.78
71643;BME280;59438;45.014;39.006;2023-01-19T04:22:58;101960.03;;;6.19;56.45
71643;BME280;59438;45.014;39.006;2023-01-19T04:25:25;101962.66;;;6.16;55.62
71643;BME280;59438;45.014;39.006;2023-01-19T04:27:51;101942.63;;;6.00;55.98
71643;BME280;59438;45.014;39.006;2023-01-19T04:30:18;101965.25;;;6.10;56.03
71643;BME280;59438;45.014;39.006;2023-01-19T04:32:45;101973.94;;;6.08;56.44
71643;BME280;59438;45.014;39.006;2023-01-19T04:35:13;101970.47;;;6.04;55.78
71643;BME280;59438;45.014;39.006;2023-01-19T04:37:39;101973.94;;;6.00;55.89
71643;BME280;59438;45.014;39.006;2023-01-19T04:40:07;101964.34;;;5.96;56.05
71643;BME280;59438;45.014;39.006;2023-01-19T04:42:34;101950.38;;;5.83;56.62
71643;BME280;59438;45.014;39.006;2023-01-19T04:45:00;101964.31;;;5.90;56.30
71643;BME280;59438;45.014;39.006;2023-01-19T04:47:26;101973.00;;;5.87;56.60
71643;BME280;59438;45.014;39.006;2023-01-19T04:49:53;101969.50;;;5.85;56.17
71643;BME280;59438;45.014;39.006;2023-01-19T04:52:20;101964.28;;;5.82;56.35
71643;BME280;59438;45.014;39.006;2023-01-19T04:54:47;101975.56;;;5.82;56.34
71643;BME280;59438;45.014;39.006;2023-01-19T04:57:13;101979.91;;;5.80;56.28
71643;BME280;59438;45.014;39.006;2023-01-19T04:59:40;101992.06;;;5.78;57.17
71643;BME280;59438;45.014;39.006;2023-01-19T05:02:06;101979.88;;;5.70;56.75
71643;BME280;59438;45.014;39.006;2023-01-19T05:04:32;101989.44;;;5.72;57.05
71643;BME280;59438;45.014;39.006;2023-01-19T05:06:58;101999.00;;;5.72;57.09
71643;BME280;59438;45.014;39.006;2023-01-19T05:09:26;102001.63;;;5.72;56.87
71643;BME280;59438;45.014;39.006;2023-01-19T05:11:53;101998.13;;;5.70;56.69
71643;BME280;59438;45.014;39.006;2023-01-19T05:14:19;101991.19;;;5.73;56.64
71643;BME280;59438;45.014;39.006;2023-01-19T05:16:45;102000.75;;;5.74;57.16
71643;BME280;59438;45.014;39.006;2023-01-19T05:19:12;102000.75;;;5.74;57.49
71643;BME280;59438;45.014;39.006;2023-01-19T05:21:38;102005.97;;;5.74;56.70
71643;BME280;59438;45.014;39.006;2023-01-19T05:24:05;102006.84;;;5.75;57.30
71643;BME280;59438;45.014;39.006;2023-01-19T05:26:33;102005.97;;;5.76;57.45
71643;BME280;59438;45.014;39.006;2023-01-19T05:28:59;102015.56;;;5.77;56.86
71643;BME280;59438;45.014;39.006;2023-01-19T05:31:26;102012.94;;;5.75;56.77
71643;BME280;59438;45.014;39.006;2023-01-19T05:33:52;102019.00;;;5.73;57.50
71643;BME280;59438;45.014;39.006;2023-01-19T05:36:18;102015.53;;;5.75;56.63
71643;BME280;59438;45.014;39.006;2023-01-19T05:38:45;102017.28;;;5.75;57.48
71643;BME280;59438;45.014;39.006;2023-01-19T05:41:11;101977.19;;;5.51;57.34
71643;BME280;59438;45.014;39.006;2023-01-19T05:43:39;102023.38;;;5.75;56.79
71643;BME280;59438;45.014;39.006;2023-01-19T05:46:05;102026.84;;;5.76;57.45
71643;BME280;59438;45.014;39.006;2023-01-19T05:48:32;102013.78;;;5.76;57.67
71643;BME280;59438;45.014;39.006;2023-01-19T05:50:58;102020.78;;;5.77;57.36
71643;BME280;59438;45.014;39.006;2023-01-19T05:53:25;102009.47;;;5.78;57.35
71643;BME280;59438;45.014;39.006;2023-01-19T05:55:52;102012.09;;;5.81;57.37
71643;BME280;59438;45.014;39.006;2023-01-19T05:58:18;102015.56;;;5.81;56.84
71643;BME280;59438;45.014;39.006;2023-01-19T06:00:46;102015.56;;;5.84;57.63
71643;BME280;59438;45.014;39.006;2023-01-19T06:03:12;102015.59;;;5.88;57.45
71643;BME280;59438;45.014;39.006;2023-01-19T06:05:38;102016.47;;;5.90;57.59
71643;BME280;59438;45.014;39.006;2023-01-19T06:08:05;102013.84;;;5.94;56.61
71643;BME280;59438;45.014;39.006;2023-01-19T06:10:31;102011.28;;;5.99;56.74
71643;BME280;59438;45.014;39.006;2023-01-19T06:12:58;102019.16;;;6.03;56.75
71643;BME280;59438;45.014;39.006;2023-01-19T06:15:24;102010.47;;;6.08;56.62
71643;BME280;59438;45.014;39.006;2023-01-19T06:17:52;102007.88;;;6.12;56.68
71643;BME280;59438;45.014;39.006;2023-01-19T06:20:18;101986.97;;;6.09;56.57
71643;BME280;59438;45.014;39.006;2023-01-19T06:22:44;102011.34;;;6.23;56.79
71643;BME280;59438;45.014;39.006;2023-01-19T06:25:11;102005.28;;;6.26;56.53
71643;BME280;59438;45.014;39.006;2023-01-19T06:27:37;102006.16;;;6.33;57.11
71643;BME280;59438;45.014;39.006;2023-01-19T06:30:04;102004.41;;;6.38;56.58
71643;BME280;59438;45.014;39.006;2023-01-19T06:32:31;102014.84;;;6.44;57.03
71643;BME280;59438;45.014;39.006;2023-01-19T06:34:59;102007.03;;;6.50;56.11
71643;BME280;59438;45.014;39.006;2023-01-19T06:37:25;102004.44;;;6.56;56.08
71643;BME280;59438;45.014;39.006;2023-01-19T06:39:51;101988.78;;;6.49;56.38
71643;BME280;59438;45.014;39.006;2023-01-19T06:42:18;102007.91;;;6.66;56.26
71643;BME280;59438;45.014;39.006;2023-01-19T06:44:44;102010.53;;;6.71;56.70
71643;BME280;59438;45.014;39.006;2023-01-19T06:47:10;102017.50;;;6.76;56.06
71643;BME280;59438;45.014;39.006;2023-01-19T06:49:37;102021.84;;;6.82;56.57
71643;BME280;59438;45.014;39.006;2023-01-19T06:52:05;102018.34;;;6.88;55.66
71643;BME280;59438;45.014;39.006;2023-01-19T06:54:31;102014.84;;;6.93;56.27
71643;BME280;59438;45.014;39.006;2023-01-19T06:56:57;102018.34;;;6.98;55.69
71643;BME280;59438;45.014;39.006;2023-01-19T06:59:24;102025.28;;;7.04;55.90
71643;BME280;59438;45.014;39.006;2023-01-19T07:01:50;102020.09;;;7.09;56.32
71643;BME280;59438;45.014;39.006;2023-01-19T07:04:16;102031.38;;;7.15;55.46
71643;BME280;59438;45.014;39.006;2023-01-19T07:06:42;102034.84;;;7.20;55.64
71643;BME280;59438;45.014;39.006;2023-01-19T07:09:10;102034.84;;;7.26;55.09
71643;BME280;59438;45.014;39.006;2023-01-19T07:11:37;102036.56;;;7.32;56.21
71643;BME280;59438;45.014;39.006;2023-01-19T07:14:03;102035.69;;;7.36;56.16
71643;BME280;59438;45.014;39.006;2023-01-19T07:16:29;101994.81;;;7.17;55.65
71643;BME280;59438;45.014;39.006;2023-01-19T07:18:56;102036.56;;;7.46;55.81
71643;BME280;59438;45.014;39.006;2023-01-19T07:21:22;102040.88;;;7.53;55.07
71643;BME280;59438;45.014;39.006;2023-01-19T07:23:49;102019.09;;;7.54;55.14
71643;BME280;59438;45.014;39.006;2023-01-19T07:26:17;102033.84;;;7.69;54.71
71643;BME280;59438;45.014;39.006;2023-01-19T07:28:43;102031.22;;;7.78;55.45
71643;BME280;59438;45.014;39.006;2023-01-19T07:31:10;102034.66;;;7.83;55.11
71643;BME280;59438;45.014;39.006;2023-01-19T07:33:36;102034.59;;;7.94;55.22
71643;BME280;59438;45.014;39.006;2023-01-19T07:36:03;102024.13;;;7.96;54.91
71643;BME280;59438;45.014;39.006;2023-01-19T07:38:29;102017.97;;;8.03;54.58
71643;BME280;59438;45.014;39.006;2023-01-19T07:40:59;102031.91;;;8.14;54.44
71643;BME280;59438;45.014;39.006;2023-01-19T07:43:27;102037.91;;;8.28;54.24
71643;BME280;59438;45.014;39.006;2023-01-19T07:45:55;102029.13;;;8.36;54.09
71643;BME280;59438;45.014;39.006;2023-01-19T07:48:21;102008.22;;;8.33;54.33
71643;BME280;59438;45.014;39.006;2023-01-19T07:50:47;102032.56;;;8.50;53.82
71643;BME280;59438;45.014;39.006;2023-01-19T07:53:14;102032.50;;;8.56;53.93
71643;BME280;59438;45.014;39.006;2023-01-19T07:55:40;102024.59;;;8.64;54.20
71643;BME280;59438;45.014;39.006;2023-01-19T07:58:06;102024.56;;;8.70;53.97
71643;BME280;59438;45.014;39.006;2023-01-19T08:00:35;102022.78;;;8.75;53.53
71643;BME280;59438;45.014;39.006;2023-01-19T08:03:03;102030.56;;;8.83;53.86
71643;BME280;59438;45.014;39.006;2023-01-19T08:05:30;102020.00;;;8.91;54.29
71643;BME280;59438;45.014;39.006;2023-01-19T08:07:57;102028.69;;;8.97;53.77
71643;BME280;59438;45.014;39.006;2023-01-19T08:10:24;102021.66;;;9.04;53.79
71643;BME280;59438;45.014;39.006;2023-01-19T08:12:51;102026.84;;;9.07;53.50
71643;BME280;59438;45.014;39.006;2023-01-19T08:15:18;102027.56;;;9.23;53.18
71643;BME280;59438;45.014;39.006;2023-01-19T08:17:45;102026.53;;;9.38;52.89
71643;BME280;59438;45.014;39.006;2023-01-19T08:20:19;102019.44;;;9.47;53.04
71643;BME280;59438;45.014;39.006;2023-01-19T08:22:46;102015.78;;;9.61;52.67
71643;BME280;59438;45.014;39.006;2023-01-19T08:25:12;102027.03;;;9.72;51.95
71643;BME280;59438;45.014;39.006;2023-01-19T08:27:39;102026.03;;;9.81;52.41
71643;BME280;59438;45.014;39.006;2023-01-19T08:30:06;102018.06;;;9.88;51.95
71643;BME280;59438;45.014;39.006;2023-01-19T08:32:33;102023.16;;;9.98;52.08
71643;BME280;59438;45.014;39.006;2023-01-19T08:35:00;102023.00;;;10.10;51.59
71643;BME280;59438;45.014;39.006;2023-01-19T08:37:27;102017.56;;;10.22;51.29
71643;BME280;59438;45.014;39.006;2023-01-19T08:39:53;102016.56;;;10.34;51.10
71643;BME280;59438;45.014;39.006;2023-01-19T08:42:19;102026.91;;;10.43;51.20
71643;BME280;59438;45.014;39.006;2023-01-19T08:44:46;102018.00;;;10.55;51.30
71643;BME280;59438;45.014;39.006;2023-01-19T08:47:12;102016.94;;;10.67;50.74
71643;BME280;59438;45.014;39.006;2023-01-19T08:49:38;102014.97;;;10.80;50.32
71643;BME280;59438;45.014;39.006;2023-01-19T08:52:06;102010.44;;;10.88;50.57
71643;BME280;59438;45.014;39.006;2023-01-19T08:54:32;102011.16;;;10.98;51.16
71643;BME280;59438;45.014;39.006;2023-01-19T08:56:59;102007.38;;;11.11;49.77
71643;BME280;59438;45.014;39.006;2023-01-19T08:59:25;102005.47;;;11.21;50.14
71643;BME280;59438;45.014;39.006;2023-01-19T09:01:51;101997.56;;;11.22;49.29
71643;BME280;59438;45.014;39.006;2023-01-19T09:04:18;102003.34;;;11.38;49.75
71643;BME280;59438;45.014;39.006;2023-01-19T09:06:44;102006.69;;;11.48;49.18
71643;BME280;59438;45.014;39.006;2023-01-19T09:09:12;101995.97;;;11.57;48.83
71643;BME280;59438;45.014;39.006;2023-01-19T09:11:38;101988.88;;;11.61;48.95
71643;BME280;59438;45.014;39.006;2023-01-19T09:14:05;101993.97;;;11.68;49.49
71643;BME280;59438;45.014;39.006;2023-01-19T09:16:31;101995.59;;;11.76;49.09
71643;BME280;59438;45.014;39.006;2023-01-19T09:18:57;101984.88;;;11.83;49.29
71643;BME280;59438;45.014;39.006;2023-01-19T09:21:24;101980.31;;;11.93;48.93
71643;BME280;59438;45.014;39.006;2023-01-19T09:23:50;101967.16;;;11.93;48.26
71643;BME280;59438;45.014;39.006;2023-01-19T09:26:18;101979.03;;;12.11;47.54
71643;BME280;59438;45.014;39.006;2023-01-19T09:28:44;101982.31;;;12.21;47.89
71643;BME280;59438;45.014;39.006;2023-01-19T09:31:10;101983.81;;;12.31;47.68
71643;BME280;59438;45.014;39.006;2023-01-19T09:33:37;101975.75;;;12.37;47.52
71643;BME280;59438;45.014;39.006;2023-01-19T09:36:03;101969.47;;;12.44;47.16
71643;BME280;59438;45.014;39.006;2023-01-19T09:38:30;101973.75;;;12.48;47.94
71643;BME280;59438;45.014;39.006;2023-01-19T09:40:56;101973.72;;;12.50;47.52
71643;BME280;59438;45.014;39.006;2023-01-19T09:43:43;101962.13;;;12.56;46.55
71643;BME280;59438;45.014;39.006;2023-01-19T09:46:12;101951.56;;;12.57;47.11
71643;BME280;59438;45.014;39.006;2023-01-19T09:48:46;101946.16;;;12.62;46.36
71643;BME280;59438;45.014;39.006;2023-01-19T09:51:16;101950.44;;;12.66;46.17
71643;BME280;59438;45.014;39.006;2023-01-19T09:53:54;101927.56;;;12.68;46.20
71643;BME280;59438;45.014;39.006;2023-01-19T09:56:22;101941.34;;;12.79;46.66
71643;BME280;59438;45.014;39.006;2023-01-19T09:58:51;101906.44;;;12.69;46.45
71643;BME280;59438;45.014;39.006;2023-01-19T10:01:29;101930.47;;;12.92;45.63
71643;BME280;59438;45.014;39.006;2023-01-19T10:06:57;101931.53;;;13.16;45.77
71643;BME280;59438;45.014;39.006;2023-01-19T10:09:30;101930.34;;;13.26;45.93
71643;BME280;59438;45.014;39.006;2023-01-19T10:12:03;101928.31;;;13.37;45.25
71643;BME280;59438;45.014;39.006;2023-01-19T10:14:41;101926.22;;;13.48;45.01
71643;BME280;59438;45.014;39.006;2023-01-19T10:17:17;101926.91;;;13.55;45.12
71643;BME280;59438;45.014;39.006;2023-01-19T10:19:50;101905.03;;;13.52;45.53
71643;BME280;59438;45.014;39.006;2023-01-19T10:22:20;101924.00;;;13.64;45.45
71643;BME280;59438;45.014;39.006;2023-01-19T10:24:50;101923.84;;;13.69;45.26
71643;BME280;59438;45.014;39.006;2023-01-19T10:27:23;101930.75;;;13.73;44.77
71643;BME280;59438;45.014;39.006;2023-01-19T10:29:53;101928.84;;;13.78;45.54
71643;BME280;59438;45.014;39.006;2023-01-19T10:32:21;101917.38;;;13.79;45.58
71643;BME280;59438;45.014;39.006;2023-01-19T10:34:49;101918.09;;;13.84;45.23
71643;BME280;59438;45.014;39.006;2023-01-19T10:37:24;101923.97;;;13.94;44.59
71643;BME280;59438;45.014;39.006;2023-01-19T10:39:55;101927.34;;;13.98;44.99
71643;BME280;59438;45.014;39.006;2023-01-19T10:42:22;101894.41;;;13.81;46.08
71643;BME280;59438;45.014;39.006;2023-01-19T10:44:48;101922.03;;;13.99;46.00
71643;BME280;59438;45.014;39.006;2023-01-19T10:47:18;101925.31;;;14.06;44.88
71643;BME280;59438;45.014;39.006;2023-01-19T10:49:46;101929.50;;;14.13;45.05
71643;BME280;59438;45.014;39.006;2023-01-19T10:52:22;101927.56;;;14.18;44.44
71643;BME280;59438;45.014;39.006;2023-01-19T10:54:51;101918.53;;;14.25;45.41
71643;BME280;59438;45.014;39.006;2023-01-19T10:57:24;101922.91;;;14.26;44.37
71643;BME280;59438;45.014;39.006;2023-01-19T10:59:51;101920.25;;;14.26;45.56
71643;BME280;59438;45.014;39.006;2023-01-19T11:02:20;101907.31;;;14.19;44.25
71643;BME280;59438;45.014;39.006;2023-01-19T11:04:48;101919.25;;;14.30;44.95
71643;BME280;59438;45.014;39.006;2023-01-19T11:07:19;101919.09;;;14.35;44.12
71643;BME280;59438;45.014;39.006;2023-01-19T11:09:45;101907.72;;;14.33;44.93
71643;BME280;59438;45.014;39.006;2023-01-19T11:12:17;101897.06;;;14.35;43.19
71643;BME280;59438;45.014;39.006;2023-01-19T11:14:44;101908.38;;;14.40;44.47
71643;BME280;59438;45.014;39.006;2023-01-19T11:17:20;101909.78;;;14.50;43.03
71643;BME280;59438;45.014;39.006;2023-01-19T11:19:57;101916.59;;;14.57;42.83
71643;BME280;59438;45.014;39.006;2023-01-19T11:22:27;101896.38;;;14.56;43.48
71643;BME280;59438;45.014;39.006;2023-01-19T11:24:57;101907.56;;;14.64;42.83
71643;BME280;59438;45.014;39.006;2023-01-19T11:27:25;101906.47;;;14.70;43.40
71643;BME280;59438;45.014;39.006;2023-01-19T11:29:57;101910.81;;;14.73;42.79
71643;BME280;59438;45.014;39.006;2023-01-19T11:32:26;101904.59;;;14.74;43.33
71643;BME280;59438;45.014;39.006;2023-01-19T11:34:53;101908.88;;;14.76;43.66
71643;BME280;59438;45.014;39.006;2023-01-19T11:37:28;101894.75;;;14.77;42.23
71643;BME280;59438;45.014;39.006;2023-01-19T11:39:57;101905.31;;;14.79;43.07
71643;BME280;59438;45.014;39.006;2023-01-19T11:42:24;101907.81;;;14.82;43.94
71643;BME280;59438;45.014;39.006;2023-01-19T11:44:58;101892.97;;;14.78;42.58
71643;BME280;59438;45.014;39.006;2023-01-19T11:47:31;101911.22;;;14.85;42.61
71643;BME280;59438;45.014;39.006;2023-01-19T11:50:03;101895.63;;;14.78;42.83
71643;BME280;59438;45.014;39.006;2023-01-19T11:52:31;101919.75;;;14.94;43.81
71643;BME280;59438;45.014;39.006;2023-01-19T11:55:03;101905.97;;;14.84;42.62
71643;BME280;59438;45.014;39.006;2023-01-19T11:57:32;101887.00;;;14.73;43.48
71643;BME280;59438;45.014;39.006;2023-01-19T11:59:59;101917.19;;;14.90;43.28
71643;BME280;59438;45.014;39.006;2023-01-19T12:02:39;101906.78;;;14.86;42.54
71643;BME280;59438;45.014;39.006;2023-01-19T12:05:12;101917.06;;;14.95;42.62
71643;BME280;59438;45.014;39.006;2023-01-19T12:07:41;101925.72;;;14.99;43.10
71643;BME280;59438;45.014;39.006;2023-01-19T12:10:19;101922.19;;;15.00;41.78
71643;BME280;59438;45.014;39.006;2023-01-19T12:12:49;101923.66;;;15.07;42.96
71643;BME280;59438;45.014;39.006;2023-01-19T12:15:21;101906.16;;;15.03;42.69
71643;BME280;59438;45.014;39.006;2023-01-19T12:17:55;101898.38;;;15.00;41.90
71643;BME280;59438;45.014;39.006;2023-01-19T12:20:26;101932.91;;;15.20;42.24
71643;BME280;59438;45.014;39.006;2023-01-19T12:23:01;101932.84;;;15.22;42.03
71643;BME280;59438;45.014;39.006;2023-01-19T12:25:40;101930.06;;;15.25;41.79
71643;BME280;59438;45.014;39.006;2023-01-19T12:28:11;101932.84;;;15.22;41.72
71643;BME280;59438;45.014;39.006;2023-01-19T12:30:39;101943.22;;;15.28;42.77
71643;BME280;59438;45.014;39.006;2023-01-19T12:33:37;101936.81;;;15.34;41.74
71643;BME280;59438;45.014;39.006;2023-01-19T12:36:08;101941.25;;;15.33;42.07
71643;BME280;59438;45.014;39.006;2023-01-19T12:38:44;101934.91;;;15.37;41.54
71643;BME280;59438;45.014;39.006;2023-01-19T12:41:30;101947.13;;;15.41;41.34
71643;BME280;59438;45.014;39.006;2023-01-19T12:44:19;101949.66;;;15.44;41.69
71643;BME280;59438;45.014;39.006;2023-01-19T12:46:47;101946.06;;;15.45;41.90
71643;BME280;59438;45.014;39.006;2023-01-19T12:49:31;101899.91;;;15.29;41.12
71643;BME280;59438;45.014;39.006;2023-01-19T12:52:27;101945.75;;;15.55;41.34
71643;BME280;59438;45.014;39.006;2023-01-19T12:55:00;101934.41;;;15.51;40.70
71643;BME280;59438;45.014;39.006;2023-01-19T12:57:30;101941.16;;;15.58;41.21